Avalon — PBSF — position and weather

sailwx.info

Track history (hours):
 
Tides and Currents Weather Stations Pressure Air Temp Water Temp Dewpoint Dewpoint Depression Visibility Wind Speed Wind Dir Waves Ship Positions

Avalon

Last reported at 2014-Nov-26 14:25 UTC. Time now 2014-Nov-27 04:15 UTC.
Position N 54°55' W 001°22'.

Length 89 m; draft 3.4 m.

Type: Cargo ship. MMSI: 246578000.

Date/timePositionNaut miles runAvg speedWind from/ knotsBaromVisibWave heightAir tempDewpointWater temp
2014-Nov-26 14:25N 54°55' W 001°22'0 0.0
2014-Nov-26 13:28N 54°55' W 001°22'0 0.0
2014-Nov-26 12:28N 54°55' W 001°22'0 0.0
2014-Nov-26 10:31N 54°55' W 001°22'0 0.0
2014-Nov-26 00:16N 54°55' W 001°22'5 6.7
2014-Nov-25 23:33N 54°59' W 001°18'10 9.9
2014-Nov-25 22:32N 55°09' W 001°22'5210.3
2014-Nov-25 17:31N 55°59' W 001°48'1111.4
2014-Nov-25 16:33N 56°09' W 001°56'1211.7
2014-Nov-25 15:33N 56°19' W 002°06'1211.9
2014-Nov-25 14:33N 56°30' W 002°15'2 0.1
2014-Nov-23 16:26N 56°32' W 002°14'9 9.7
2014-Nov-23 15:29N 56°25' W 002°04'9 9.6
2014-Nov-23 14:31N 56°16' W 001°57'9 9.2
2014-Nov-23 13:30N 56°08' W 001°48'62 9.8
2014-Nov-23 07:08N 55°15' W 000°51'6 9.6
2014-Nov-23 06:32N 55°10' W 000°46'9 9.0
2014-Nov-23 05:33N 55°03' W 000°38'12 8.6
2014-Nov-23 04:12N 54°53' W 000°28'5 8.4
2014-Nov-23 03:33N 54°48' W 000°23'8 8.5
2014-Nov-23 02:34N 54°41' W 000°15'9 8.7
2014-Nov-23 01:34N 54°33' W 000°08'9 9.3
2014-Nov-23 00:33N 54°25' E 000°01'1010.0
2014-Nov-22 23:34N 54°17' E 000°09'1110.7
2014-Nov-22 22:34N 54°07' E 000°18'1110.9
2014-Nov-22 21:34N 53°58' E 000°28'1110.8
2014-Nov-22 20:33N 53°49' E 000°39'43 8.7
2014-Nov-22 15:33N 53°12' E 001°18'1010.5
2014-Nov-22 14:33N 53°03' E 001°27'1211.9
2014-Nov-22 13:34N 52°54' E 001°40'1212.0
2014-Nov-22 12:33N 52°46' E 001°54'1111.3
2014-Nov-22 11:34N 52°37' E 002°05'9 9.4
2014-Nov-22 10:34N 52°29' E 002°14'53 8.8
2014-Nov-22 04:32N 51°48' E 003°08'9 9.0
2014-Nov-22 03:33N 51°42' E 003°18'1111.4
2014-Nov-22 02:33N 51°31' E 003°26'10 9.7
2014-Nov-22 01:33N 51°27' E 003°39'2 1.7
2014-Nov-22 00:32N 51°28' E 003°41'0 0.0
2014-Nov-21 23:29N 51°28' E 003°41'0 0.0
2014-Nov-21 22:32N 51°28' E 003°41'0 0.0
2014-Nov-21 21:32N 51°28' E 003°41'0 0.0
2014-Nov-21 20:32N 51°28' E 003°41'0 0.0
2014-Nov-21 19:32N 51°28' E 003°41'0 0.0
2014-Nov-21 18:29N 51°28' E 003°41'0 0.0
2014-Nov-21 17:32N 51°28' E 003°41'0 0.0
2014-Nov-21 16:32N 51°28' E 003°41'0 0.0
2014-Nov-21 15:32N 51°28' E 003°41'0 0.0
2014-Nov-21 14:32N 51°28' E 003°41'0 0.0
2014-Nov-21 13:32N 51°28' E 003°41'1 1.4
2014-Nov-21 12:33N 51°27' E 003°43'0 0.0
2014-Nov-21 11:33N 51°27' E 003°43'0 0.0
2014-Nov-21 10:33N 51°27' E 003°43'0 0.0
2014-Nov-21 09:33N 51°27' E 003°43'0 0.0
2014-Nov-21 08:33N 51°27' E 003°43'0 0.0
2014-Nov-21 07:33N 51°27' E 003°43'0 0.0
2014-Nov-21 06:33N 51°27' E 003°43'0 0.0
2014-Nov-21 05:33N 51°27' E 003°43'3 3.1
2014-Nov-21 04:33N 51°26' E 003°39'8 7.9
2014-Nov-21 03:33N 51°30' E 003°28'10 9.5
2014-Nov-21 02:33N 51°38' E 003°20'8 8.3
2014-Nov-21 01:33N 51°46' E 003°14'9 9.5
2014-Nov-21 00:33N 51°55' E 003°19'9 8.8
2014-Nov-20 23:33N 52°03' E 003°25'1110.6
2014-Nov-20 22:33N 52°03' E 003°42'1111.2
2014-Nov-20 21:33N 52°01' E 004°00'1313.2
2014-Nov-20 20:33N 51°54' E 004°18'10 9.9
2014-Nov-20 19:34N 51°50' E 004°33'9 8.5
2014-Nov-20 18:33N 51°42' E 004°37'0 0.0
2014-Nov-20 17:30N 51°42' E 004°37'0 0.0
2014-Nov-20 16:30N 51°42' E 004°37'0 0.0
2014-Nov-20 15:33N 51°42' E 004°37'0 0.0
2014-Nov-20 14:30N 51°42' E 004°37'0 0.0
2014-Nov-20 13:30N 51°42' E 004°37'0 0.0
2014-Nov-20 12:30N 51°42' E 004°37'0 0.0
2014-Nov-20 11:33N 51°42' E 004°37'0 0.0
2014-Nov-20 10:33N 51°42' E 004°37'0 0.0
2014-Nov-20 09:33N 51°42' E 004°37'0 0.0
2014-Nov-20 08:33N 51°42' E 004°37'0 0.0
2014-Nov-20 07:30N 51°42' E 004°37'0 0.0
2014-Nov-20 06:30N 51°42' E 004°37'0 0.0
2014-Nov-20 05:24N 51°42' E 004°37'0 0.0
2014-Nov-20 04:33N 51°42' E 004°37'0 0.0
2014-Nov-20 03:30N 51°42' E 004°37'0 0.0
2014-Nov-20 02:30N 51°42' E 004°37'0 0.0
2014-Nov-20 01:33N 51°42' E 004°37'0 0.0
2014-Nov-20 00:30N 51°42' E 004°37'0 0.0
2014-Nov-19 23:30N 51°42' E 004°37'0 0.0
2014-Nov-19 22:30N 51°42' E 004°37'0 0.0
2014-Nov-19 21:24N 51°42' E 004°37'0 0.0
2014-Nov-19 20:33N 51°42' E 004°37'0 0.0
2014-Nov-19 19:30N 51°42' E 004°37'0 0.0
2014-Nov-19 18:33N 51°42' E 004°37'0 0.0
2014-Nov-19 17:33N 51°42' E 004°37'0 0.0
2014-Nov-19 16:30N 51°42' E 004°37'0 0.0
2014-Nov-19 15:30N 51°42' E 004°37'0 0.0
2014-Nov-19 14:33N 51°42' E 004°37'0 0.0
2014-Nov-19 13:33N 51°42' E 004°37'7 6.9
2014-Nov-19 12:34N 51°48' E 004°35'10 9.5
2014-Nov-19 11:33N 51°51' E 004°21'8 7.9
2014-Nov-19 10:33N 51°57' E 004°11'9 9.5
2014-Nov-19 09:33N 52°00' E 003°57'8 8.1
2014-Nov-19 08:33N 52°05' E 003°47'1010.3
2014-Nov-19 07:33N 52°16' E 003°47'1111.0
2014-Nov-19 06:31N 52°27' E 003°50'1511.4
2014-Nov-19 05:10N 52°42' E 003°55'47 9.3
2014-Nov-19 00:07N 53°23' E 004°34'6 9.8
2014-Nov-18 23:29N 53°28' E 004°40'1011.2
2014-Nov-18 22:33N 53°32' E 004°56'1111.1
2014-Nov-18 21:33N 53°36' E 005°14'1111.2
2014-Nov-18 20:33N 53°39' E 005°32'1110.6
2014-Nov-18 19:33N 53°43' E 005°49'10 9.9
2014-Nov-18 18:33N 53°46' E 006°05'52 9.9
2014-Nov-18 13:18N 53°59' E 007°30'811.1
2014-Nov-18 12:33N 54°01' E 007°44'1111.4
2014-Nov-18 11:33N 54°01' E 008°03'1212.1
2014-Nov-18 10:33N 53°60' E 008°24'1111.2
2014-Nov-18 09:33N 53°55' E 008°41'8 8.4
2014-Nov-18 08:33N 53°51' E 008°53'8 8.4
2014-Nov-18 07:33N 53°53' E 009°07'4 3.8
2014-Nov-18 06:33N 53°55' E 009°12'9 8.3
2014-Nov-18 05:32N 54°03' E 009°18'9 7.8
2014-Nov-18 04:26N 54°10' E 009°26'10 7.9
2014-Nov-18 03:07N 54°17' E 009°39'5 8.0
2014-Nov-18 02:33N 54°20' E 009°45'8 7.7
2014-Nov-18 01:33N 54°21' E 009°58'6 6.5
2014-Nov-18 00:33N 54°22' E 010°09'5 5.2
2014-Nov-17 23:33N 54°26' E 010°14'1010.2
2014-Nov-17 22:33N 54°32' E 010°28'3310.8
2014-Nov-17 19:30N 54°32' E 011°25'1010.5
2014-Nov-17 18:33N 54°29' E 011°41'1010.3
2014-Nov-17 17:33N 54°27' E 011°58'10110.1
2014-Nov-17 07:33N 55°21' E 014°26'1010.0
2014-Nov-17 06:33N 55°28' E 014°39'1010.0
2014-Nov-17 05:33N 55°33' E 014°54'3310.1
2014-Nov-17 02:15N 55°49' E 015°46'710.0
2014-Nov-17 01:31N 55°53' E 015°57'1010.2
2014-Nov-17 00:33N 55°58' E 016°12'  
Track history (hours):
 
Tides and Currents Weather Stations Pressure Air Temp Water Temp Dewpoint Dewpoint Depression Visibility Wind Speed Wind Dir Waves Ship Positions

Avalon

Last reported at 2014-Nov-26 14:25 UTC. Time now 2014-Nov-27 04:15 UTC.
Position N 54°55' W 001°22'.

Length 89 m; draft 3.4 m.

Type: Cargo ship. MMSI: 246578000.

Date/timePositionNaut miles runAvg speedWind from/ knotsBaromVisibWave heightAir tempDewpointWater temp
2014-Nov-26 14:25N 54°55' W 001°22'0 0.0
2014-Nov-26 13:28N 54°55' W 001°22'0 0.0
2014-Nov-26 12:28N 54°55' W 001°22'0 0.0
2014-Nov-26 10:31N 54°55' W 001°22'0 0.0
2014-Nov-26 00:16N 54°55' W 001°22'5 6.7
2014-Nov-25 23:33N 54°59' W 001°18'10 9.9
2014-Nov-25 22:32N 55°09' W 001°22'5210.3
2014-Nov-25 17:31N 55°59' W 001°48'1111.4
2014-Nov-25 16:33N 56°09' W 001°56'1211.7
2014-Nov-25 15:33N 56°19' W 002°06'1211.9
2014-Nov-25 14:33N 56°30' W 002°15'2 0.1
2014-Nov-23 16:26N 56°32' W 002°14'9 9.7
2014-Nov-23 15:29N 56°25' W 002°04'9 9.6
2014-Nov-23 14:31N 56°16' W 001°57'9 9.2
2014-Nov-23 13:30N 56°08' W 001°48'62 9.8
2014-Nov-23 07:08N 55°15' W 000°51'6 9.6
2014-Nov-23 06:32N 55°10' W 000°46'9 9.0
2014-Nov-23 05:33N 55°03' W 000°38'12 8.6
2014-Nov-23 04:12N 54°53' W 000°28'5 8.4
2014-Nov-23 03:33N 54°48' W 000°23'8 8.5
2014-Nov-23 02:34N 54°41' W 000°15'9 8.7
2014-Nov-23 01:34N 54°33' W 000°08'9 9.3
2014-Nov-23 00:33N 54°25' E 000°01'1010.0
2014-Nov-22 23:34N 54°17' E 000°09'1110.7
2014-Nov-22 22:34N 54°07' E 000°18'1110.9
2014-Nov-22 21:34N 53°58' E 000°28'1110.8
2014-Nov-22 20:33N 53°49' E 000°39'43 8.7
2014-Nov-22 15:33N 53°12' E 001°18'1010.5
2014-Nov-22 14:33N 53°03' E 001°27'1211.9
2014-Nov-22 13:34N 52°54' E 001°40'1212.0
2014-Nov-22 12:33N 52°46' E 001°54'1111.3
2014-Nov-22 11:34N 52°37' E 002°05'9 9.4
2014-Nov-22 10:34N 52°29' E 002°14'53 8.8
2014-Nov-22 04:32N 51°48' E 003°08'9 9.0
2014-Nov-22 03:33N 51°42' E 003°18'1111.4
2014-Nov-22 02:33N 51°31' E 003°26'10 9.7
2014-Nov-22 01:33N 51°27' E 003°39'2 1.7
2014-Nov-22 00:32N 51°28' E 003°41'0 0.0
2014-Nov-21 23:29N 51°28' E 003°41'0 0.0
2014-Nov-21 22:32N 51°28' E 003°41'0 0.0
2014-Nov-21 21:32N 51°28' E 003°41'0 0.0
2014-Nov-21 20:32N 51°28' E 003°41'0 0.0
2014-Nov-21 19:32N 51°28' E 003°41'0 0.0
2014-Nov-21 18:29N 51°28' E 003°41'0 0.0
2014-Nov-21 17:32N 51°28' E 003°41'0 0.0
2014-Nov-21 16:32N 51°28' E 003°41'0 0.0
2014-Nov-21 15:32N 51°28' E 003°41'0 0.0
2014-Nov-21 14:32N 51°28' E 003°41'0 0.0
2014-Nov-21 13:32N 51°28' E 003°41'1 1.4
2014-Nov-21 12:33N 51°27' E 003°43'0 0.0
2014-Nov-21 11:33N 51°27' E 003°43'0 0.0
2014-Nov-21 10:33N 51°27' E 003°43'0 0.0
2014-Nov-21 09:33N 51°27' E 003°43'0 0.0
2014-Nov-21 08:33N 51°27' E 003°43'0 0.0
2014-Nov-21 07:33N 51°27' E 003°43'0 0.0
2014-Nov-21 06:33N 51°27' E 003°43'0 0.0
2014-Nov-21 05:33N 51°27' E 003°43'3 3.1
2014-Nov-21 04:33N 51°26' E 003°39'8 7.9
2014-Nov-21 03:33N 51°30' E 003°28'10 9.5
2014-Nov-21 02:33N 51°38' E 003°20'8 8.3
2014-Nov-21 01:33N 51°46' E 003°14'9 9.5
2014-Nov-21 00:33N 51°55' E 003°19'9 8.8
2014-Nov-20 23:33N 52°03' E 003°25'1110.6
2014-Nov-20 22:33N 52°03' E 003°42'1111.2
2014-Nov-20 21:33N 52°01' E 004°00'1313.2
2014-Nov-20 20:33N 51°54' E 004°18'10 9.9
2014-Nov-20 19:34N 51°50' E 004°33'9 8.5
2014-Nov-20 18:33N 51°42' E 004°37'0 0.0
2014-Nov-20 17:30N 51°42' E 004°37'0 0.0
2014-Nov-20 16:30N 51°42' E 004°37'0 0.0
2014-Nov-20 15:33N 51°42' E 004°37'0 0.0
2014-Nov-20 14:30N 51°42' E 004°37'0 0.0
2014-Nov-20 13:30N 51°42' E 004°37'0 0.0
2014-Nov-20 12:30N 51°42' E 004°37'0 0.0
2014-Nov-20 11:33N 51°42' E 004°37'0 0.0
2014-Nov-20 10:33N 51°42' E 004°37'0 0.0
2014-Nov-20 09:33N 51°42' E 004°37'0 0.0
2014-Nov-20 08:33N 51°42' E 004°37'0 0.0
2014-Nov-20 07:30N 51°42' E 004°37'0 0.0
2014-Nov-20 06:30N 51°42' E 004°37'0 0.0
2014-Nov-20 05:24N 51°42' E 004°37'0 0.0
2014-Nov-20 04:33N 51°42' E 004°37'0 0.0
2014-Nov-20 03:30N 51°42' E 004°37'0 0.0
2014-Nov-20 02:30N 51°42' E 004°37'0 0.0
2014-Nov-20 01:33N 51°42' E 004°37'0 0.0
2014-Nov-20 00:30N 51°42' E 004°37'0 0.0
2014-Nov-19 23:30N 51°42' E 004°37'0 0.0
2014-Nov-19 22:30N 51°42' E 004°37'0 0.0
2014-Nov-19 21:24N 51°42' E 004°37'0 0.0
2014-Nov-19 20:33N 51°42' E 004°37'0 0.0
2014-Nov-19 19:30N 51°42' E 004°37'0 0.0
2014-Nov-19 18:33N 51°42' E 004°37'0 0.0
2014-Nov-19 17:33N 51°42' E 004°37'0 0.0
2014-Nov-19 16:30N 51°42' E 004°37'0 0.0
2014-Nov-19 15:30N 51°42' E 004°37'0 0.0
2014-Nov-19 14:33N 51°42' E 004°37'0 0.0
2014-Nov-19 13:33N 51°42' E 004°37'7 6.9
2014-Nov-19 12:34N 51°48' E 004°35'10 9.5
2014-Nov-19 11:33N 51°51' E 004°21'8 7.9
2014-Nov-19 10:33N 51°57' E 004°11'9 9.5
2014-Nov-19 09:33N 52°00' E 003°57'8 8.1
2014-Nov-19 08:33N 52°05' E 003°47'1010.3
2014-Nov-19 07:33N 52°16' E 003°47'1111.0
2014-Nov-19 06:31N 52°27' E 003°50'1511.4
2014-Nov-19 05:10N 52°42' E 003°55'47 9.3
2014-Nov-19 00:07N 53°23' E 004°34'6 9.8
2014-Nov-18 23:29N 53°28' E 004°40'1011.2
2014-Nov-18 22:33N 53°32' E 004°56'1111.1
2014-Nov-18 21:33N 53°36' E 005°14'1111.2
2014-Nov-18 20:33N 53°39' E 005°32'1110.6
2014-Nov-18 19:33N 53°43' E 005°49'10 9.9
2014-Nov-18 18:33N 53°46' E 006°05'52 9.9
2014-Nov-18 13:18N 53°59' E 007°30'811.1
2014-Nov-18 12:33N 54°01' E 007°44'1111.4
2014-Nov-18 11:33N 54°01' E 008°03'1212.1
2014-Nov-18 10:33N 53°60' E 008°24'1111.2
2014-Nov-18 09:33N 53°55' E 008°41'8 8.4
2014-Nov-18 08:33N 53°51' E 008°53'8 8.4
2014-Nov-18 07:33N 53°53' E 009°07'4 3.8
2014-Nov-18 06:33N 53°55' E 009°12'9 8.3
2014-Nov-18 05:32N 54°03' E 009°18'9 7.8
2014-Nov-18 04:26N 54°10' E 009°26'10 7.9
2014-Nov-18 03:07N 54°17' E 009°39'5 8.0
2014-Nov-18 02:33N 54°20' E 009°45'8 7.7
2014-Nov-18 01:33N 54°21' E 009°58'6 6.5
2014-Nov-18 00:33N 54°22' E 010°09'5 5.2
2014-Nov-17 23:33N 54°26' E 010°14'1010.2
2014-Nov-17 22:33N 54°32' E 010°28'3310.8
2014-Nov-17 19:30N 54°32' E 011°25'1010.5
2014-Nov-17 18:33N 54°29' E 011°41'1010.3
2014-Nov-17 17:33N 54°27' E 011°58'10110.1
2014-Nov-17 07:33N 55°21' E 014°26'1010.0
2014-Nov-17 06:33N 55°28' E 014°39'1010.0
2014-Nov-17 05:33N 55°33' E 014°54'3310.1
2014-Nov-17 02:15N 55°49' E 015°46'710.0
2014-Nov-17 01:31N 55°53' E 015°57'1010.2
2014-Nov-17 00:33N 55°58' E 016°12'  

Dump ship's entire track history